TimePDT,TemperatureF,Dew PointF,Humidity,Sea Level PressureIn,VisibilityMPH,Wind Direction,Wind SpeedMPH,Gust SpeedMPH,PrecipitationIn,Events,Conditions,WindDirDegrees,DateUTC
12:15 AM,53.6,35.6,51,30.31,10.0,Calm,Calm,-,N/A,,Clear,0,2013-08-22 07:15:00
12:35 AM,53.6,37.4,54,30.31,10.0,Calm,Calm,-,N/A,,Clear,0,2013-08-22 07:35:00
12:55 AM,53.6,35.6,51,30.31,10.0,Calm,Calm,-,N/A,,Clear,0,2013-08-22 07:55:00
1:15 AM,53.6,37.4,54,30.31,10.0,West,3.5,-,N/A,,Clear,280,2013-08-22 08:15:00
1:35 AM,53.6,39.2,58,30.31,10.0,Calm,Calm,-,N/A,,Clear,0,2013-08-22 08:35:00
1:55 AM,53.6,41.0,62,30.31,10.0,Calm,Calm,-,N/A,,Clear,0,2013-08-22 08:55:00
2:15 AM,51.8,41.0,67,30.30,10.0,Calm,Calm,-,N/A,,Clear,0,2013-08-22 09:15:00
2:35 AM,51.8,41.0,67,30.30,10.0,Calm,Calm,-,N/A,,Clear,0,2013-08-22 09:35:00
2:55 AM,51.8,41.0,67,30.30,10.0,Calm,Calm,-,N/A,,Clear,0,2013-08-22 09:55:00
3:15 AM,53.6,42.8,67,30.30,10.0,Calm,Calm,-,N/A,,Clear,0,2013-08-22 10:15:00
3:35 AM,51.8,41.0,67,30.29,10.0,Calm,Calm,-,N/A,,Clear,0,2013-08-22 10:35:00
3:55 AM,51.8,41.0,67,30.30,10.0,Calm,Calm,-,N/A,,Clear,0,2013-08-22 10:55:00
4:15 AM,51.8,41.0,67,30.29,10.0,Calm,Calm,-,N/A,,Clear,0,2013-08-22 11:15:00
4:35 AM,51.8,39.2,62,30.29,10.0,Calm,Calm,-,N/A,,Clear,0,2013-08-22 11:35:00
4:55 AM,53.6,41.0,62,30.29,10.0,Calm,Calm,-,N/A,,Clear,0,2013-08-22 11:55:00
5:15 AM,51.8,41.0,67,30.29,10.0,Calm,Calm,-,N/A,,Clear,0,2013-08-22 12:15:00
5:35 AM,53.6,39.2,58,30.30,10.0,Calm,Calm,-,N/A,,Clear,0,2013-08-22 12:35:00
5:55 AM,53.6,41.0,62,30.29,10.0,Calm,Calm,-,N/A,,Clear,0,2013-08-22 12:55:00
6:15 AM,51.8,39.2,62,30.30,10.0,Calm,Calm,-,N/A,,Clear,0,2013-08-22 13:15:00
6:35 AM,53.6,37.4,54,30.30,10.0,Calm,Calm,-,N/A,,Clear,0,2013-08-22 13:35:00
6:55 AM,53.6,39.2,58,30.31,10.0,Calm,Calm,-,N/A,,Clear,0,2013-08-22 13:55:00
7:15 AM,55.4,39.2,54,30.31,10.0,Calm,Calm,-,N/A,,Scattered Clouds,0,2013-08-22 14:15:00
7:35 AM,57.2,39.2,51,30.31,10.0,Calm,Calm,-,N/A,,Scattered Clouds,0,2013-08-22 14:35:00
7:55 AM,57.2,41.0,55,30.31,10.0,Calm,Calm,-,N/A,,Clear,0,2013-08-22 14:55:00
8:15 AM,62.6,41.0,45,30.31,7.0,Calm,Calm,-,N/A,,Clear,0,2013-08-22 15:15:00
8:35 AM,64.4,42.8,45,30.31,10.0,Calm,Calm,-,N/A,,Clear,0,2013-08-22 15:35:00
3:15 PM,78.8,39.2,24,30.25,10.0,SSW,6.9,18.4,N/A,,Clear,210,2013-08-22 22:15:00
3:35 PM,78.8,39.2,24,30.24,10.0,West,11.5,20.7,N/A,,Clear,260,2013-08-22 22:35:00
3:55 PM,77.0,39.2,26,30.24,10.0,SW,9.2,18.4,N/A,,Clear,220,2013-08-22 22:55:00
4:15 PM,77.0,37.4,24,30.23,10.0,SW,10.4,18.4,N/A,,Clear,230,2013-08-22 23:15:00
4:35 PM,77.0,39.2,26,30.23,10.0,WSW,11.5,18.4,N/A,,Clear,240,2013-08-22 23:35:00
4:55 PM,77.0,41.0,28,30.23,10.0,West,8.1,-,N/A,,Clear,260,2013-08-22 23:55:00
5:15 PM,75.2,41.0,29,30.23,10.0,West,13.8,19.6,N/A,,Clear,260,2013-08-23 00:15:00
5:35 PM,73.4,41.0,31,30.23,10.0,West,12.7,-,N/A,,Clear,260,2013-08-23 00:35:00
5:55 PM,73.4,41.0,31,30.23,10.0,West,9.2,-,N/A,,Clear,260,2013-08-23 00:55:00
6:15 PM,71.6,37.4,29,30.23,10.0,SW,6.9,-,N/A,,Clear,230,2013-08-23 01:15:00
6:35 PM,71.6,39.2,31,30.23,10.0,WSW,6.9,-,N/A,,Clear,250,2013-08-23 01:35:00
6:55 PM,69.8,39.2,33,30.23,10.0,West,9.2,-,N/A,,Clear,270,2013-08-23 01:55:00
7:15 PM,69.8,37.4,31,30.24,10.0,West,8.1,-,N/A,,Clear,270,2013-08-23 02:15:00
7:35 PM,68.0,37.4,33,30.25,10.0,West,6.9,-,N/A,,Clear,280,2013-08-23 02:35:00
7:55 PM,68.0,37.4,33,30.25,10.0,SSW,3.5,-,N/A,,Clear,210,2013-08-23 02:55:00
8:15 PM,64.4,37.4,37,30.26,10.0,SW,5.8,-,N/A,,Scattered Clouds,220,2013-08-23 03:15:00
8:35 PM,64.4,37.4,37,30.27,10.0,SW,4.6,-,N/A,,Clear,220,2013-08-23 03:35:00
8:55 PM,64.4,37.4,37,30.27,10.0,SW,4.6,-,N/A,,Clear,230,2013-08-23 03:55:00
9:15 PM,64.4,39.2,40,30.28,10.0,West,3.5,-,N/A,,Scattered Clouds,260,2013-08-23 04:15:00
9:35 PM,62.6,41.0,45,30.27,10.0,West,4.6,-,N/A,,Scattered Clouds,260,2013-08-23 04:35:00
9:55 PM,62.6,37.4,39,30.27,10.0,WSW,4.6,-,N/A,,Scattered Clouds,250,2013-08-23 04:55:00
10:15 PM,62.6,39.2,42,30.27,10.0,West,4.6,-,N/A,,Clear,270,2013-08-23 05:15:00
10:35 PM,62.6,37.4,39,30.27,10.0,West,4.6,-,N/A,,Clear,260,2013-08-23 05:35:00
10:55 PM,60.8,39.2,45,30.27,10.0,Calm,Calm,-,N/A,,Clear,0,2013-08-23 05:55:00
11:15 PM,59.0,37.4,45,30.27,10.0,Calm,Calm,-,N/A,,Clear,0,2013-08-23 06:15:00
11:35 PM,59.0,37.4,45,30.26,10.0,SSW,3.5,-,N/A,,Clear,200,2013-08-23 06:35:00
11:55 PM,59.0,37.4,45,30.27,10.0,Calm,Calm,-,N/A,,Clear,0,2013-08-23 06:55:00